Avioradar koristi kolačiće da bi Vam omogućio jednostavnije i ugodnije korištenje stranice. 

AVIORADAR - Hrvatski zrakoplovni portal

METAR & TAF

[Source: ADDS]
METAR
LDZA 191600Z VRB01KT CAVOK 21/04 Q1027 NOSIG =
LDZA 191125Z 1912/2012 VRB02KT CAVOK TX21/1914Z TN04/2006Z LDSP 191600Z 24009KT 210V280 CAVOK 20/04 Q1025 BECMG 30008KT =
LDSP 191125Z 1912/2012 23012KT 9999 FEW050 TX22/2011Z TN12/2004Z BECMG 1916/1918 30008KT BECMG 2009/2011 23012KT LDDU 191600Z 29013KT CAVOK 17/08 Q1024 NOSIG =
LDDU 191125Z 1912/2012 30012KT CAVOK TX20/2011Z TN12/2003Z BECMG 1916/1918 30006KT BECMG 1918/1920 02015KT BECMG 2006/2008 24007KT BECMG 2008/2010 30012KT LDPL 191600Z 28010KT CAVOK 18/04 Q1027 NOSIG =
LDPL 191125Z 1912/2012 29009KT CAVOK TX21/1913Z TN10/2004Z BECMG 1917/1919 03005KT TEMPO 2006/2010 06009KT BECMG 2010/2012 25007KT LDZD 191600Z 30011KT 280V340 CAVOK 19/03 Q1026 NOSIG =
LDZD 191125Z 1912/2012 29012KT 9999 FEW060 TX22/2011Z TN08/2004Z BECMG 1917/1919 06006KT BECMG 2010/2012 28008KT LDRI 191600Z 32006KT 280V360 9999 FEW063 20/02 Q1027 =
LDRI 191125Z 1912/2012 30008KT 9999 FEW050 TX20/1913Z TN10/2004Z BECMG 1916/1918 VRB02KT TEMPO 2009/2012 30008KT LDOS 191600Z 35010KT CAVOK 21/04 Q1026 =
LDOS 191125Z 1912/2012 33010KT CAVOK TX21/1913Z TN05/2005Z BECMG 1916/1919 03005KT
TAF
LDZA 191125Z 1912/2012 VRB02KT CAVOK TX21/1914Z TN04/2006Z =
LDSP 191125Z 1912/2012 23012KT 9999 FEW050 TX22/2011Z TN12/2004Z BECMG 1916/1918 30008KT BECMG 2009/2011 23012KT =
LDDU 191125Z 1912/2012 30012KT CAVOK TX20/2011Z TN12/2003Z BECMG 1916/1918 30006KT BECMG 1918/1920 02015KT BECMG 2006/2008 24007KT BECMG 2008/2010 30012KT =
LDPL 191125Z 1912/2012 29009KT CAVOK TX21/1913Z TN10/2004Z BECMG 1917/1919 03005KT TEMPO 2006/2010 06009KT BECMG 2010/2012 25007KT =
LDZD 191125Z 1912/2012 29012KT 9999 FEW060 TX22/2011Z TN08/2004Z BECMG 1917/1919 06006KT BECMG 2010/2012 28008KT =
LDRI 191125Z 1912/2012 30008KT 9999 FEW050 TX20/1913Z TN10/2004Z BECMG 1916/1918 VRB02KT TEMPO 2009/2012 30008KT =
LDOS 191125Z 1912/2012 33010KT CAVOK TX21/1913Z TN05/2005Z BECMG 1916/1919 03005KT =
SR / SS: 04:02 / 17:47 UTC (Zagreb 2019-04-19)